CheckWX is a tool to help pilots better visualize weather data.  It is not intended as a substitute for an official pre-flight weather briefing.

18:27:01 UTC

LJMB METAR
Maribor Airport
Slovenia
Current

27 mins ago

LJMB 201800Z 23004KT CAVOK 26/20 Q1018
Observed
Aug-20 @ 18:00 UTC
Wind
  • 230° at 4 KTS
Visibility
10,000+ meters
Flight Rules
VFR
Cloud Levels
  • Clear skies
Temperature
26°C / 79°F
Dewpoint
20°C / 68°F
Humidity
70%
Altimeter
30.06" Hg
Pressure
1017.92 hPa
Previous

57 mins ago

LJMB 201730Z 18005KT CAVOK 29/19 Q1018
Observed
Aug-20 @ 17:30 UTC
Wind
  • 180° at 5 KTS
Visibility
10,000+ meters
Flight Rules
VFR
Cloud Levels
  • Clear skies
Temperature
29°C / 84°F
Dewpoint
19°C / 66°F
Heat Index
30°C / 86°F
Humidity
55%
Altimeter
30.06" Hg
Pressure
1017.92 hPa
Previous

1 hour ago

LJMB 201700Z 19004KT CAVOK 30/19 Q1018
Observed
Aug-20 @ 17:00 UTC
Wind
  • 190° at 4 KTS
Visibility
10,000+ meters
Flight Rules
VFR
Cloud Levels
  • Clear skies
Temperature
30°C / 86°F
Dewpoint
19°C / 66°F
Heat Index
31°C / 88°F
Humidity
52%
Altimeter
30.06" Hg
Pressure
1017.92 hPa